Time;durP1;ratioP1;P1;durP2;ratioP2;P2;SDS_P1;SDS_P2;PMS_P1;PMS_P2;Temp;Humidity;BMP_temperature;BMP_pressure;BME280_temperature;BME280_humidity;BME280_pressure;Samples;Min_cycle;Max_cycle;Signal;HPM_P1;HPM_P2
2022/07/25 00:00:09;;;;;;;9.77;1.23;;;18.20;99.90;;;;;;5034828;28;20182;-57
2022/07/25 00:02:35;;;;;;;0.00;0.00;;;18.20;99.90;;;;;;5035792;28;20591;-58
2022/07/25 00:05:01;;;;;;;0.00;0.00;;;18.20;99.90;;;;;;5035192;28;20262;-59
2022/07/25 00:07:27;;;;;;;0.10;0.10;;;18.10;99.90;;;;;;5035684;28;20540;-57
2022/07/25 00:09:53;;;;;;;2.58;2.00;;;18.10;99.90;;;;;;5051969;28;20202;-58
2022/07/25 00:12:20;;;;;;;0.10;0.10;;;18.10;99.90;;;;;;5055218;28;20174;-57
2022/07/25 00:14:46;;;;;;;0.32;0.32;;;18.20;99.90;;;;;;5055460;28;20182;-58
2022/07/25 00:17:12;;;;;;;18.57;3.87;;;18.20;99.90;;;;;;5055125;28;20271;-58
2022/07/25 00:19:38;;;;;;;0.87;0.63;;;18.20;99.90;;;;;;5048763;28;20578;-59
2022/07/25 00:22:04;;;;;;;0.80;0.80;;;18.20;99.90;;;;;;5035153;28;20176;-58
2022/07/25 00:24:30;;;;;;;2.92;1.00;;;18.20;99.90;;;;;;5035328;28;20316;-58
2022/07/25 00:26:56;;;;;;;2.67;0.97;;;18.10;99.90;;;;;;5034641;28;20195;-58
2022/07/25 00:29:21;;;;;;;1.40;0.93;;;18.10;99.90;;;;;;5035220;28;20190;-61
2022/07/25 00:31:47;;;;;;;0.37;0.37;;;18.10;99.90;;;;;;5034800;28;20183;-58
2022/07/25 00:34:13;;;;;;;5.93;3.67;;;18.10;99.90;;;;;;5034510;28;20657;-58
2022/07/25 00:36:39;;;;;;;2.10;1.27;;;18.00;99.90;;;;;;5034458;28;20226;-58
2022/07/25 00:39:05;;;;;;;0.30;0.30;;;18.00;99.90;;;;;;5034327;28;20274;-58
2022/07/25 00:41:31;;;;;;;0.00;0.00;;;18.00;99.90;;;;;;5034496;28;20547;-60
2022/07/25 00:43:56;;;;;;;1.50;1.40;;;18.00;99.90;;;;;;5034289;28;20187;-57
2022/07/25 00:46:22;;;;;;;0.83;0.83;;;18.00;99.90;;;;;;5034726;28;20178;-59
2022/07/25 00:48:48;;;;;;;1.93;1.60;;;17.90;99.90;;;;;;5034229;28;20211;-58
2022/07/25 00:51:15;;;;;;;6.00;2.17;;;17.90;99.90;;;;;;5034157;28;20262;-57
2022/07/25 00:53:41;;;;;;;13.87;11.23;;;17.80;99.90;;;;;;5034112;28;20260;-57
2022/07/25 00:56:07;;;;;;;0.33;0.30;;;17.80;99.90;;;;;;5034267;28;20191;-59
2022/07/25 00:58:33;;;;;;;0.10;0.10;;;17.80;99.90;;;;;;5034693;28;20274;-58
2022/07/25 01:01:00;;;;;;;0.00;0.00;;;17.80;99.90;;;;;;5034370;28;20233;-57
2022/07/25 01:03:26;;;;;;;0.73;0.53;;;17.70;99.90;;;;;;5034599;28;20667;-57
2022/07/25 01:05:52;;;;;;;0.00;0.00;;;17.70;99.90;;;;;;5034191;28;20223;-58
2022/07/25 01:08:19;;;;;;;0.40;0.40;;;17.70;99.90;;;;;;5037989;28;20277;-58
2022/07/25 01:10:46;;;;;;;0.20;0.20;;;17.70;99.90;;;;;;5053863;28;20174;-58
2022/07/25 01:13:12;;;;;;;3.40;1.60;;;17.70;99.90;;;;;;5054527;28;20213;-58
2022/07/25 01:15:38;;;;;;;0.27;0.27;;;17.60;99.90;;;;;;5054614;28;20566;-58
2022/07/25 01:18:04;;;;;;;0.60;0.27;;;17.50;99.90;;;;;;5054103;28;20500;-57
2022/07/25 01:20:31;;;;;;;0.10;0.10;;;17.50;99.90;;;;;;5040556;28;20296;-57
2022/07/25 01:22:58;;;;;;;0.00;0.00;;;17.40;99.90;;;;;;5033939;28;20186;-58
2022/07/25 01:25:24;;;;;;;1.80;1.70;;;17.40;99.90;;;;;;5034076;28;20190;-59
2022/07/25 01:27:52;;;;;;;0.00;0.00;;;17.40;99.90;;;;;;5034051;28;20187;-59
2022/07/25 01:30:19;;;;;;;0.10;0.10;;;17.30;99.90;;;;;;5034157;28;20197;-58
2022/07/25 01:32:45;;;;;;;0.00;0.00;;;17.30;99.90;;;;;;5034071;28;20190;-59
2022/07/25 01:35:12;;;;;;;0.00;0.00;;;17.20;99.90;;;;;;5033914;28;20175;-58
2022/07/25 01:37:38;;;;;;;0.00;0.00;;;17.20;99.90;;;;;;5033629;28;20261;-58
2022/07/25 01:40:05;;;;;;;0.00;0.00;;;17.10;99.90;;;;;;5033626;28;20225;-58
2022/07/25 01:42:31;;;;;;;0.03;0.03;;;17.10;99.90;;;;;;5034211;28;20280;-58
2022/07/25 01:44:57;;;;;;;0.00;0.00;;;17.10;99.90;;;;;;5033566;28;20665;-57
2022/07/25 01:47:23;;;;;;;0.00;0.00;;;17.00;99.90;;;;;;5033968;28;20258;-60
2022/07/25 01:49:49;;;;;;;0.13;0.13;;;16.90;99.90;;;;;;5033766;28;20183;-59
2022/07/25 01:52:15;;;;;;;0.00;0.00;;;16.90;99.90;;;;;;5033263;28;20263;-59
2022/07/25 01:54:40;;;;;;;0.50;0.13;;;16.90;99.90;;;;;;5033609;28;20603;-59
2022/07/25 01:57:07;;;;;;;0.73;0.40;;;16.90;99.90;;;;;;5033521;28;20207;-58
2022/07/25 01:59:39;;;;;;;1.27;0.70;;;17.00;99.90;;;;;;5033549;28;20219;-59
2022/07/25 02:02:08;;;;;;;0.10;0.10;;;17.00;99.90;;;;;;5033435;28;20182;-58
2022/07/25 02:04:35;;;;;;;5.17;4.73;;;17.00;99.90;;;;;;5033362;28;20673;-59
2022/07/25 02:07:01;;;;;;;0.10;0.10;;;17.00;99.90;;;;;;5032780;28;20194;-58
2022/07/25 02:09:27;;;;;;;1.03;0.87;;;17.10;99.90;;;;;;5046210;28;20191;-58
2022/07/25 02:11:52;;;;;;;0.10;0.10;;;17.00;99.90;;;;;;5053408;28;20185;-57
2022/07/25 02:14:18;;;;;;;2.77;1.37;;;17.00;99.90;;;;;;5052554;28;20193;-57
2022/07/25 02:16:44;;;;;;;0.40;0.40;;;17.10;99.90;;;;;;5053035;28;20182;-58
2022/07/25 02:19:09;;;;;;;3.87;3.47;;;17.00;99.90;;;;;;5049777;28;20197;-58
2022/07/25 02:21:36;;;;;;;0.30;0.30;;;17.00;99.90;;;;;;5032401;28;20205;-58
2022/07/25 02:24:02;;;;;;;0.00;0.00;;;17.00;99.90;;;;;;5032573;28;20190;-58
2022/07/25 02:26:28;;;;;;;3.40;0.73;;;16.90;99.90;;;;;;5033153;28;20191;-58
2022/07/25 02:28:54;;;;;;;0.93;0.93;;;16.90;99.90;;;;;;5032626;28;20262;-68
2022/07/25 02:31:19;;;;;;;0.10;0.10;;;16.80;99.90;;;;;;5031537;28;20277;-59
2022/07/25 02:33:45;;;;;;;0.00;0.00;;;16.80;99.90;;;;;;5032849;28;20268;-58
2022/07/25 02:36:11;;;;;;;0.30;0.30;;;16.70;99.90;;;;;;5032113;28;20185;-59
2022/07/25 02:38:38;;;;;;;1.73;1.63;;;16.70;99.90;;;;;;5032251;28;20694;-58
2022/07/25 02:41:04;;;;;;;0.07;0.07;;;16.70;99.90;;;;;;5032311;28;20175;-58
2022/07/25 02:43:30;;;;;;;0.87;0.87;;;16.70;99.90;;;;;;5031267;28;20697;-58
2022/07/25 02:45:55;;;;;;;0.00;0.00;;;16.70;99.90;;;;;;5032359;28;20266;-60
2022/07/25 02:48:21;;;;;;;0.60;0.60;;;16.70;99.90;;;;;;5032538;28;20374;-60
2022/07/25 02:50:47;;;;;;;0.20;0.20;;;16.70;99.90;;;;;;5032530;28;20190;-57
2022/07/25 02:53:12;;;;;;;3.30;0.67;;;16.70;99.90;;;;;;5032134;28;20189;-58
2022/07/25 02:55:38;;;;;;;0.00;0.00;;;16.60;99.90;;;;;;5032384;28;20219;-58
2022/07/25 02:58:04;;;;;;;0.17;0.17;;;16.70;99.90;;;;;;5032123;28;20254;-57
2022/07/25 03:00:30;;;;;;;0.00;0.00;;;16.70;99.90;;;;;;5032318;28;20175;-57
2022/07/25 03:02:57;;;;;;;0.00;0.00;;;16.70;99.90;;;;;;5032107;28;20258;-63
2022/07/25 03:05:23;;;;;;;0.47;0.47;;;16.70;99.90;;;;;;5032237;28;20221;-58
2022/07/25 03:07:48;;;;;;;0.50;0.50;;;16.70;99.90;;;;;;5032390;28;20222;-58
2022/07/25 03:10:14;;;;;;;2.70;2.00;;;16.80;99.90;;;;;;5051357;28;20261;-58
2022/07/25 03:12:42;;;;;;;0.10;0.10;;;16.80;99.90;;;;;;5052123;28;20273;-58
2022/07/25 03:15:09;;;;;;;0.00;0.00;;;16.80;99.90;;;;;;5051699;28;20175;-59
2022/07/25 03:17:35;;;;;;;0.77;0.77;;;16.90;99.90;;;;;;5050375;28;20217;-58
2022/07/25 03:20:01;;;;;;;0.00;0.00;;;16.90;99.90;;;;;;5041868;28;20183;-58
2022/07/25 03:22:26;;;;;;;1.13;0.80;;;16.90;99.90;;;;;;5032151;28;20183;-62
2022/07/25 03:24:52;;;;;;;1.40;0.83;;;16.90;99.90;;;;;;5031559;28;20186;-60
2022/07/25 03:27:19;;;;;;;0.83;0.67;;;17.00;99.90;;;;;;5031808;28;20187;-59
2022/07/25 03:29:44;;;;;;;0.10;0.10;;;17.00;99.90;;;;;;5032084;28;20183;-58
2022/07/25 03:32:10;;;;;;;0.60;0.60;;;17.10;99.90;;;;;;5030079;28;20183;-58
2022/07/25 03:34:36;;;;;;;0.10;0.10;;;17.10;99.90;;;;;;5031395;28;20190;-58
2022/07/25 03:37:03;;;;;;;1.73;1.13;;;17.10;99.90;;;;;;5031301;28;20239;-60
2022/07/25 03:39:28;;;;;;;0.60;0.60;;;17.10;99.90;;;;;;5031769;28;20179;-59
2022/07/25 03:41:55;;;;;;;0.57;0.57;;;17.20;99.90;;;;;;5031588;28;20195;-59
2022/07/25 03:44:22;;;;;;;0.70;0.70;;;17.30;99.90;;;;;;5031294;28;20175;-58
2022/07/25 03:46:48;;;;;;;11.33;0.63;;;17.30;99.90;;;;;;5031498;28;20230;-59
2022/07/25 03:49:14;;;;;;;2.83;1.37;;;17.30;99.90;;;;;;5030789;28;20183;-59
2022/07/25 03:51:40;;;;;;;2.87;2.30;;;17.30;99.90;;;;;;5031548;28;20183;-58
2022/07/25 03:54:07;;;;;;;0.00;0.00;;;17.30;99.90;;;;;;5031358;28;20197;-61
2022/07/25 03:56:51;;;;;;;0.63;0.30;;;17.30;99.90;;;;;;5031360;28;20273;-61
